Flight Track Log - Related Links

Times and Time Zones

All times are in EDT time to prevent confusion due to time zone crossing. See the AAL963 flight status page for this flight to view local times or setup timezone preferences in your user account.

Time Position Orientation Groundspeed Altitude Reporting Facility
EDT Latitude Longitude Course Direction KTS MPH feet Rate Location/Type
Tue 09:12:59 PM 32.8610 -97.0300 182° South 164 189 2,300  Level FlightAware ADS-B
Tue 09:13:24 PM 32.8390 -97.0260 171° South 195 224 2,600 873 Climbing FlightAware ADS-B
Tue 09:13:54 PM 32.8130 -97.0160 162° South 222 255 3,100 1,300 Climbing FlightAware ADS-B
Tue 09:14:24 PM 32.7810 -97.0060 165° South 245 282 3,900 2,133 Climbing FlightAware ADS-B
Tue 09:14:39 PM 32.7620 -97.0000 165° South 239 275 4,700 2,400 Climbing FlightAware ADS-B
Tue 09:15:04 PM 32.7360 -96.9890 160° South 252 290 5,500 1,950 Climbing FlightAware ADS-B
Tue 09:15:19 PM 32.7200 -96.9820 160° South 255 293 6,000 1,950 Climbing FlightAware ADS-B
Tue 09:15:44 PM 32.6910 -96.9710 162° South 264 304 6,800 1,733 Climbing FlightAware ADS-B
Tue 09:16:04 PM 32.6700 -96.9640 164° South 274 315 7,300 1,733 Climbing FlightAware ADS-B
Tue 09:16:29 PM 32.6360 -96.9510 162° South 287 330 8,100 2,000 Climbing FlightAware ADS-B
Tue 09:16:55 PM 32.6020 -96.9380 162° South 293 337 9,000 1,684 Climbing FlightAware ADS-B
Tue 09:17:26 PM 32.5600 -96.9210 161° South 311 358 9,700 1,459 Climbing FlightAware ADS-B
Tue 09:18:09 PM 32.5010 -96.8980 162° South 330 380 10,800 1,286 Climbing FlightAware ADS-B
Tue 09:18:50 PM 32.4370 -96.8740 162° South 362 417 11,500 1,071 Climbing FlightAware ADS-B
Tue 09:19:33 PM 32.3660 -96.8470 162° South 393 452 12,300 1,379 Climbing FlightAware ADS-B
Tue 09:20:17 PM 32.2870 -96.8160 162° South 410 472 13,500 1,835 Climbing FlightAware ADS-B
Tue 09:20:58 PM 32.2110 -96.7870 162° South 419 482 14,900 1,975 Climbing FlightAware ADS-B
Tue 09:21:36 PM 32.1410 -96.7610 163° South 426 490 16,100 1,862 Climbing FlightAware ADS-B
Tue 09:21:56 PM 32.1026 -96.7462 162° South 431 496 16,700 1,800 Climbing FlightAware ADS-B
Tue 09:22:36 PM 32.0257 -96.7169 162° South 435 501 17,900 1,800 Climbing FlightAware ADS-B
Tue 09:23:16 PM 31.9482 -96.6875 162° South 445 512 19,100 1,800 Climbing FlightAware ADS-B
Tue 09:23:46 PM 31.8880 -96.6647 162° South 448 516 20,000 1,680 Climbing FlightAware ADS-B
Tue 09:24:06 PM 31.8494 -96.6497 162° South 454 522 20,500 1,647 Climbing FlightAware ADS-B
Tue 09:24:37 PM 31.7865 -96.6236 161° South 460 529 21,400 1,524 Climbing FlightAware ADS-B
Tue 09:25:09 PM 31.7226 -96.5971 161° South 468 539 22,100 1,478 Climbing FlightAware ADS-B
Tue 09:25:46 PM 31.6454 -96.5654 161° South 474 545 23,100 1,478 Climbing FlightAware ADS-B
Tue 09:26:18 PM 31.5784 -96.5381 161° South 483 556 23,800 1,258 Climbing FlightAware ADS-B
Tue 09:26:48 PM 31.5147 -96.5122 161° South 488 562 24,400 1,279 Climbing FlightAware ADS-B
Tue 09:27:19 PM 31.4485 -96.4869 162° South 494 568 25,100 1,240 Climbing FlightAware ADS-B
Tue 09:28:49 PM 31.2478 -96.4129 162° South 510 587 26,900 1,238 Climbing FlightAware ADS-B
Tue 09:29:25 PM 31.1717 -96.3715 148° Southeast 511 588 27,700 1,269 Climbing FlightAware ADS-B
Tue 09:29:41 PM 31.1428 -96.3422 139° Southeast 511 588 28,000 1,011 Climbing FlightAware ADS-B
Tue 09:30:54 PM 31.0404 -96.1798 126° Southeast 521 600 29,200 990 Climbing FlightAware ADS-B
Tue 09:31:24 PM 30.9977 -96.1100 126° Southeast 524 603 29,700 1,180 Climbing FlightAware ADS-B
Tue 09:31:55 PM 30.9542 -96.0393 126° Southeast 524 603 30,400 1,429 Climbing FlightAware ADS-B
Tue 09:32:27 PM 30.9097 -95.9672 126° Southeast 520 598 31,200 1,268 Climbing FlightAware ADS-B
Tue 09:33:58 PM 30.7819 -95.7611 126° Southeast 518 596 33,000 1,190 Climbing FlightAware ADS-B
Tue 09:34:28 PM 30.7393 -95.6928 126° Southeast 516 594 33,600 1,267 Climbing FlightAware ADS-B
Tue 09:35:28 PM 30.6559 -95.5591 126° Southeast 508 585 34,900 923 Climbing FlightAware ADS-B
Tue 09:35:59 PM 30.6129 -95.4905 126° Southeast 506 582 35,000 98 Climbing FlightAware ADS-B
Tue 09:36:29 PM 30.5716 -95.4246 126° Southeast 506 582 35,000  Level FlightAware ADS-B
Tue 09:36:59 PM 30.5301 -95.3585 126° Southeast 507 583 35,000  Level FlightAware ADS-B
Tue 09:38:31 PM 30.4041 -95.1583 126° Southeast 507 583 35,000  Level FlightAware ADS-B
Tue 09:41:34 PM 30.1504 -94.7585 126° Southeast 507 583 35,000  Level FlightAware ADS-B
Tue 09:42:04 PM 30.1087 -94.6932 126° Southeast 507 583 35,000  Level FlightAware ADS-B
Tue 09:42:34 PM 30.0664 -94.6270 126° Southeast 508 585 35,000  Level FlightAware ADS-B
Tue 09:43:36 PM 29.9807 -94.4932 127° Southeast 508 585 35,000  Level FlightAware ADS-B
Tue 09:44:07 PM 29.9371 -94.4253 127° Southeast 509 586 35,000  Level FlightAware ADS-B
Tue 09:46:09 PM 29.7647 -94.1583 127° Southeast 513 590 35,000  Level FlightAware ADS-B
Tue 09:46:40 PM 29.7208 -94.0906 127° Southeast 513 590 35,000  Level FlightAware ADS-B
Tue 09:46:56 PM 29.6960 -94.0568 130° Southeast 516 594 35,000  Level FlightAware ADS-B
Tue 09:47:14 PM 29.6664 -94.0232 135° Southeast 518 596 35,000  Level FlightAware ADS-B
Tue 09:47:45 PM 29.6083 -93.9707 142° Southeast 519 597 35,000  Level FlightAware ADS-B
Tue 09:48:17 PM 29.5460 -93.9173 143° Southeast 518 596 35,000  Level FlightAware ADS-B
Tue 09:48:53 PM 29.4774 -93.8588 143° Southeast 517 595 35,000  Level FlightAware ADS-B
Tue 09:49:33 PM 29.3996 -93.7927 143° Southeast 518 596 35,000  Level FlightAware ADS-B
Tue 09:50:05 PM 29.3372 -93.7395 143° Southeast 519 597 35,000  Level FlightAware ADS-B
Tue 09:50:36 PM 29.2782 -93.6895 144° Southeast 518 596 35,000  Level FlightAware ADS-B
Tue 09:51:08 PM 29.2176 -93.6380 143° Southeast 517 595 35,000  Level FlightAware ADS-B
Tue 09:51:38 PM 29.1589 -93.5883 144° Southeast 517 595 35,000  Level FlightAware ADS-B
Tue 09:52:09 PM 29.0994 -93.5380 144° Southeast 518 596 35,000  Level FlightAware ADS-B
Tue 09:52:42 PM 29.0363 -93.4847 144° Southeast 517 595 35,000  Level FlightAware ADS-B
Tue 09:53:12 PM 28.9778 -93.4354 144° Southeast 516 594 35,000  Level FlightAware ADS-B
Tue 09:53:42 PM 28.9196 -93.3864 144° Southeast 516 594 35,000  Level FlightAware ADS-B
Tue 09:54:14 PM 28.8588 -93.3352 144° Southeast 515 593 35,000 -50 Level FlightAware ADS-B
Tue 09:55:41 PM 28.7011 -93.2017 144° Southeast 514 592 34,900  Descending Houston Center
Tue 09:56:42 PM 28.5858 -93.1053 144° Southeast 514 592 35,000  Climbing Houston Center
Tue 09:57:43 PM 28.4708 -93.0100 144° Southeast 513 590 34,900 -49 Descending Houston Center
Tue 09:58:44 PM 28.3561 -92.9133 143° Southeast 514 592 34,900  Level Houston Center
Tue 09:59:46 PM 28.2406 -92.8167 144° Southeast 515 593 34,900 49 Level Houston Center
Tue 10:00:47 PM 28.1256 -92.7236 144° Southeast 510 587 35,000  Climbing Houston Center
Tue 10:01:48 PM 28.0114 -92.6269 143° Southeast 512 589 34,900 -49 Descending Houston Center
Tue 10:02:49 PM 27.8967 -92.5331 144° Southeast 510 587 34,900 49 Level Houston Center
Tue 10:03:50 PM 27.7819 -92.4392 144° Southeast 509 586 35,000  Climbing Houston Center
Tue 10:04:51 PM 27.6419 -92.3278 145° Southeast 514 592 34,900  Descending Houston Center
Tue 10:05:52 PM 27.5289 -92.2353 144° Southeast 506 582 35,000  Climbing Houston Center
Tue 10:06:53 PM 27.4153 -92.1439 144° Southeast 503 579 34,900 -49 Descending Houston Center
Tue 10:07:54 PM 27.3019 -92.0522 144° Southeast 502 578 34,900  Level Houston Center
Tue 10:08:55 PM 27.1889 -91.9606 144° Southeast 502 578 34,900  Level Houston Center
Tue 10:09:57 PM 27.0758 -91.8700 144° Southeast 500 575 34,900 Level Houston Center
Tue 10:11:00 PM 26.9649 -91.7798 144° Southeast  Level FlightAware Approximate
Tue 10:18:00 PM 26.2236 -91.1836 145° Southeast  Level FlightAware Approximate
Tue 10:19:00 PM 26.1170 -91.0998 145° Southeast  Level FlightAware Approximate
Tue 10:20:00 PM 26.0104 -91.0161 145° Southeast  Level FlightAware Approximate
Tue 10:21:00 PM 25.9038 -90.9325 145° Southeast  Level FlightAware Approximate
Tue 10:22:00 PM 25.7971 -90.8492 145° Southeast  Level FlightAware Approximate
Tue 10:23:00 PM 25.6903 -90.7659 145° Southeast  Level FlightAware Approximate
Tue 10:24:00 PM 25.5835 -90.6828 145° Southeast  Level FlightAware Approximate
Tue 10:25:00 PM 25.4767 -90.5999 145° Southeast  Level FlightAware Approximate
Tue 10:26:00 PM 25.3698 -90.5171 145° Southeast  Level FlightAware Approximate
Tue 10:27:00 PM 25.2629 -90.4344 145° Southeast  Level FlightAware Approximate
Tue 10:28:00 PM 25.1559 -90.3519 145° Southeast  Level FlightAware Approximate
Tue 10:29:00 PM 25.0489 -90.2696 145° Southeast  Level FlightAware Approximate
Tue 10:30:00 PM 24.9418 -90.1874 145° Southeast  Level FlightAware Approximate
Tue 10:31:00 PM 24.8347 -90.1053 145° Southeast  Level FlightAware Approximate
Tue 10:32:00 PM 24.7275 -90.0234 145° Southeast  Level FlightAware Approximate
Tue 10:33:00 PM 24.6203 -89.9416 145° Southeast  Level FlightAware Approximate
Tue 10:34:00 PM 24.5131 -89.8599 145° Southeast  Level FlightAware Approximate
Tue 10:35:00 PM 24.4162 -89.7642 137° Southeast  Level FlightAware Approximate
Tue 10:36:00 PM 24.3210 -89.6663 137° Southeast  Level FlightAware Approximate
Tue 10:37:00 PM 24.2258 -89.5685 137° Southeast  Level FlightAware Approximate
Tue 10:38:00 PM 24.1305 -89.4709 137° Southeast  Level FlightAware Approximate
Tue 10:39:00 PM 24.0351 -89.3734 137° Southeast  Level FlightAware Approximate
Tue 10:40:00 PM 23.9396 -89.2761 137° Southeast  Level FlightAware Approximate
Tue 10:41:00 PM 23.8441 -89.1789 137° Southeast  Level FlightAware Approximate
Tue 10:42:00 PM 23.7486 -89.0818 137° Southeast  Level FlightAware Approximate
Tue 10:43:00 PM 23.6530 -88.9849 137° Southeast  Level FlightAware Approximate
Tue 10:44:00 PM 23.5573 -88.8882 137° Southeast  Level FlightAware Approximate
Tue 10:45:00 PM 23.4615 -88.7916 137° Southeast  Level FlightAware Approximate
Tue 10:46:00 PM 23.3657 -88.6951 137° Southeast  Level FlightAware Approximate
Tue 10:47:00 PM 23.2699 -88.5987 137° Southeast  Level FlightAware Approximate
Tue 10:48:00 PM 23.1740 -88.5025 137° Southeast  Level FlightAware Approximate
Tue 10:48:14 PM 22.8110 -88.5850 137° Southeast 479 551 35,000  Level FlightAware ADS-B
Tue 10:48:53 PM 22.7240 -88.5230 147° Southeast 478 550 35,000  Level FlightAware ADS-B
Tue 10:49:00 PM 23.0780 -88.4065 137° Southeast  Level FlightAware Approximate
Tue 10:49:36 PM 22.6500 -88.4680 146° Southeast 478 550 35,000  Level FlightAware ADS-B
Tue 10:50:19 PM 22.5720 -88.4010 142° Southeast 480 552 35,000  Level FlightAware ADS-B
Tue 10:51:00 PM 22.5190 -88.3060 121° Southeast 482 555 35,000  Level FlightAware ADS-B
Tue 10:51:42 PM 22.4890 -88.2260 112° Southeast 482 555 35,000  Level FlightAware ADS-B
Tue 10:52:25 PM 22.4490 -88.1190 112° Southeast 482 555 35,000  Level FlightAware ADS-B
Tue 10:53:22 PM 22.4020 -87.9920 112° Southeast 483 556 35,000  Level FlightAware ADS-B
Tue 10:54:01 PM 22.3690 -87.9020 112° Southeast 482 555 35,000  Level FlightAware ADS-B
Tue 10:54:47 PM 22.3290 -87.7960 112° Southeast 482 555 35,000  Level FlightAware ADS-B
Tue 10:55:25 PM 22.2940 -87.7200 116° Southeast 481 554 35,000  Level FlightAware ADS-B
Tue 10:56:09 PM 22.2400 -87.6250 122° Southeast 481 554 35,000  Level FlightAware ADS-B
Tue 10:56:52 PM 22.1930 -87.5400 121° Southeast 482 555 35,000  Level FlightAware ADS-B
Tue 10:57:34 PM 22.1360 -87.4670 130° Southeast 483 556 35,000  Level FlightAware ADS-B
Tue 10:58:13 PM 22.0660 -87.3950 136° Southeast 484 557 35,000  Level FlightAware ADS-B
Tue 10:58:59 PM 21.9940 -87.3380 144° Southeast 483 556 35,000  Level FlightAware ADS-B
Tue 10:59:37 PM 21.9100 -87.2910 153° Southeast 485 558 35,000  Level FlightAware ADS-B
Tue 11:00:44 PM 21.7800 -87.1940 145° Southeast 488 562 35,000  Level FlightAware ADS-B
Tue 11:01:44 PM 21.6670 -87.1130 146° Southeast 488 562 35,000  Level FlightAware ADS-B
Tue 11:02:28 PM 21.5850 -87.0530 146° Southeast 488 562 35,000  Level FlightAware ADS-B
Tue 11:03:10 PM 21.5070 -86.9930 144° Southeast 489 563 35,000  Level FlightAware ADS-B
Tue 11:03:52 PM 21.4290 -86.9350 145° Southeast 488 562 35,000  Level FlightAware ADS-B
Tue 11:04:34 PM 21.3510 -86.8770 145° Southeast 488 562 35,000  Level FlightAware ADS-B
Tue 11:05:12 PM 21.2800 -86.8230 145° Southeast 486 559 35,000  Level FlightAware ADS-B
Tue 11:05:56 PM 21.1990 -86.7630 145° Southeast 486 559 35,000  Level FlightAware ADS-B
Tue 11:06:40 PM 21.1180 -86.7030 145° Southeast 485 558 35,000  Level FlightAware ADS-B
Tue 11:07:20 PM 21.0440 -86.6480 145° Southeast 485 558 35,000  Level FlightAware ADS-B
Tue 11:08:02 PM 20.9680 -86.5900 145° Southeast 485 558 35,000  Level FlightAware ADS-B
Tue 11:08:46 PM 20.8870 -86.5300 145° Southeast 485 558 35,000  Level FlightAware ADS-B
Tue 11:09:22 PM 20.8190 -86.4800 145° Southeast 485 558 35,000  Level FlightAware ADS-B
Tue 11:10:06 PM 20.7380 -86.4200 145° Southeast 484 557 35,000  Level FlightAware ADS-B
Tue 11:10:48 PM 20.6640 -86.3650 145° Southeast 484 557 35,000  Level FlightAware ADS-B
Tue 11:11:32 PM 20.5800 -86.3030 145° Southeast 484 557 35,000  Level FlightAware ADS-B
Tue 11:12:16 PM 20.4990 -86.2430 145° Southeast 484 557 35,000  Level FlightAware ADS-B
Tue 11:12:55 PM 20.4380 -86.1980 145° Southeast 484 557 35,000  Level FlightAware ADS-B
Tue 11:13:54 PM 20.3460 -86.1290 145° Southeast 484 557 35,000  Level FlightAware ADS-B
Tue 11:14:30 PM 20.2900 -86.0870 145° Southeast 484 557 35,000  Level FlightAware ADS-B
Tue 11:15:14 PM 20.1860 -86.0120 146° Southeast 487 560 35,000  Level FlightAware ADS-B
Tue 11:15:58 PM 20.0870 -85.9400 146° Southeast 485 558 35,000  Level FlightAware ADS-B
Tue 11:16:42 PM 20.0080 -85.8780 144° Southeast 488 562 35,000  Level FlightAware ADS-B
Tue 11:17:20 PM 19.9430 -85.8170 139° Southeast 489 563 35,000  Level FlightAware ADS-B
Tue 11:18:04 PM 19.8700 -85.7480 138° Southeast 488 562 35,000  Level FlightAware ADS-B
Tue 11:18:48 PM 19.7950 -85.6770 138° Southeast 489 563 35,000  Level FlightAware ADS-B
Tue 11:19:28 PM 19.7260 -85.6120 138° Southeast 490 564 35,000  Level FlightAware ADS-B
Tue 11:20:22 PM 19.6360 -85.5270 138° Southeast 492 566 35,000  Level FlightAware ADS-B
Tue 11:21:20 PM 19.5360 -85.4340 139° Southeast 491 565 35,000  Level FlightAware ADS-B
Tue 11:22:16 PM 19.4400 -85.3440 139° Southeast 490 564 35,000  Level FlightAware ADS-B
Tue 11:22:58 PM 19.3720 -85.2810 139° Southeast 488 562 35,000  Level FlightAware ADS-B
Tue 11:23:36 PM 19.3180 -85.2290 138° Southeast 488 562 35,000  Level FlightAware ADS-B
Tue 11:24:40 PM 19.2060 -85.1250 139° Southeast 490 564 35,000  Level FlightAware ADS-B
Tue 11:25:16 PM 19.1550 -85.0760 138° Southeast 490 564 35,000  Level FlightAware ADS-B
Tue 11:26:04 PM 19.0860 -85.0100 138° Southeast 490 564 35,000  Level FlightAware ADS-B
Tue 11:27:00 PM 18.9670 -84.9030 140° Southeast 489 563 35,000  Level FlightAware ADS-B
Tue 11:27:36 PM 18.9160 -84.8540 138° Southeast 489 563 35,000  Level FlightAware ADS-B
Tue 11:28:24 PM 18.8470 -84.7890 138° Southeast 489 563 35,000  Level FlightAware ADS-B
Tue 11:29:00 PM 18.7960 -84.7400 138° Southeast 489 563 35,000  Level FlightAware ADS-B
Tue 11:29:48 PM 18.7270 -84.6740 138° Southeast 489 563 35,000  Level FlightAware ADS-B
Tue 11:30:28 PM 18.6700 -84.6200 138° Southeast 489 563 35,000  Level FlightAware ADS-B
Tue 11:31:04 PM 18.6180 -84.5710 138° Southeast 489 563 35,000  Level FlightAware ADS-B
Tue 11:31:53 PM 18.5480 -84.5050 138° Southeast 489 563 35,000  Level FlightAware ADS-B
Tue 11:32:29 PM 18.4970 -84.4560 138° Southeast 489 563 35,000  Level FlightAware ADS-B
Tue 11:33:17 PM 18.4280 -84.3910 138° Southeast 489 563 35,000  Level FlightAware ADS-B
Tue 11:33:54 PM 18.3750 -84.3410 138° Southeast 489 563 35,000  Level FlightAware ADS-B
Tue 11:34:40 PM 18.3100 -84.2780 137° Southeast 489 563 35,000  Level FlightAware ADS-B
Tue 11:35:16 PM 18.2580 -84.2290 138° Southeast 489 563 35,000  Level FlightAware ADS-B
Tue 11:36:02 PM 18.1930 -84.1670 138° Southeast 489 563 35,000 22 Level FlightAware ADS-B
Tue 11:38:00 PM 18.0043 -83.9829 137° Southeast  Level Estimated
Tue 11:39:00 PM 17.9083 -83.8895 137° Southeast  Level Estimated
Tue 11:40:00 PM 17.8122 -83.7961 137° Southeast  Level Estimated
Tue 11:41:00 PM 17.7161 -83.7029 137° Southeast  Level Estimated
Tue 11:42:00 PM 17.6200 -83.6097 137° Southeast  Level Estimated
Tue 11:43:00 PM 17.5238 -83.5167 137° Southeast  Level Estimated
Tue 11:44:00 PM 17.4275 -83.4237 137° Southeast  Level Estimated
Tue 11:45:00 PM 17.3312 -83.3308 137° Southeast  Level Estimated
Tue 11:46:00 PM 17.2349 -83.2381 137° Southeast  Level Estimated
Tue 11:47:00 PM 17.1386 -83.1454 137° Southeast  Level Estimated
Tue 11:48:00 PM 17.0422 -83.0529 137° Southeast  Level Estimated
Tue 11:49:00 PM 16.9457 -82.9604 137° Southeast  Level Estimated
Tue 11:50:00 PM 16.8492 -82.8680 137° Southeast  Level Estimated
Tue 11:51:00 PM 16.7527 -82.7757 138° Southeast  Level Estimated
Tue 11:52:00 PM 16.6561 -82.6835 138° Southeast  Level Estimated
Tue 11:53:00 PM 16.5595 -82.5914 138° Southeast  Level Estimated
Tue 11:54:00 PM 16.4629 -82.4994 138° Southeast  Level Estimated
Tue 11:55:00 PM 16.3662 -82.4075 138° Southeast  Level Estimated
Tue 11:56:00 PM 16.2694 -82.3157 138° Southeast  Level Estimated
Tue 11:57:00 PM 16.1727 -82.2240 138° Southeast  Level Estimated
Tue 11:58:00 PM 16.0758 -82.1323 138° Southeast  Level Estimated
Tue 11:59:00 PM 15.9790 -82.0408 138° Southeast  Level Estimated
Wed 12:00:00 AM 15.8821 -81.9493 138° Southeast  Level Estimated
Wed 12:01:00 AM 15.7852 -81.8580 138° Southeast  Level Estimated
Wed 12:02:00 AM 15.6882 -81.7667 138° Southeast  Level Estimated
Wed 12:03:00 AM 15.5912 -81.6755 138° Southeast  Level Estimated
Wed 12:04:00 AM 15.4942 -81.5844 138° Southeast  Level Estimated
Wed 12:05:00 AM 15.3971 -81.4933 138° Southeast  Level Estimated
Wed 12:06:00 AM 15.3000 -81.4024 138° Southeast  Level Estimated
Wed 12:07:00 AM 15.2028 -81.3115 138° Southeast  Level Estimated
Wed 12:08:00 AM 15.1056 -81.2207 138° Southeast  Level Estimated
Wed 12:09:00 AM 15.0084 -81.1301 138° Southeast  Level Estimated
Wed 12:10:00 AM 14.9111 -81.0395 138° Southeast  Level Estimated
Wed 12:11:00 AM 14.8138 -80.9489 138° Southeast  Level Estimated
Wed 12:12:00 AM 14.7165 -80.8585 138° Southeast  Level Estimated
Wed 12:13:00 AM 14.6191 -80.7681 138° Southeast  Level Estimated
Wed 12:14:00 AM 14.5217 -80.6778 138° Southeast  Level Estimated
Wed 12:15:00 AM 14.4243 -80.5876 138° Southeast  Level Estimated
Wed 12:16:00 AM 14.3268 -80.4975 138° Southeast  Level Estimated
Wed 12:17:00 AM 14.2293 -80.4074 138° Southeast  Level Estimated
Wed 12:18:00 AM 14.1318 -80.3175 138° Southeast  Level Estimated
Wed 12:19:00 AM 14.0342 -80.2276 138° Southeast  Level Estimated
Wed 12:20:00 AM 13.9366 -80.1377 138° Southeast  Level Estimated
Wed 12:21:00 AM 13.8390 -80.0480 138° Southeast  Level Estimated
Wed 12:22:00 AM 13.7413 -79.9583 138° Southeast  Level Estimated
Wed 12:23:00 AM 13.6436 -79.8687 138° Southeast  Level Estimated
Wed 12:24:00 AM 13.5458 -79.7792 138° Southeast  Level Estimated
Wed 12:25:00 AM 13.4481 -79.6898 138° Southeast  Level Estimated
Wed 12:26:00 AM 13.3503 -79.6004 138° Southeast  Level Estimated
Wed 12:27:00 AM 13.2524 -79.5111 138° Southeast  Level Estimated
Wed 12:28:00 AM 13.1546 -79.4219 138° Southeast  Level Estimated
Wed 12:29:00 AM 13.0567 -79.3327 138° Southeast  Level Estimated
Wed 12:30:00 AM 12.9588 -79.2436 138° Southeast  Level Estimated
Wed 12:31:00 AM 12.8608 -79.1546 138° Southeast  Level Estimated
Wed 12:32:00 AM 12.7628 -79.0657 138° Southeast  Level Estimated
Wed 12:33:00 AM 12.6648 -78.9768 138° Southeast  Level Estimated
Wed 12:34:00 AM 12.5668 -78.8880 139° Southeast  Level Estimated
Wed 12:35:00 AM 12.4687 -78.7992 139° Southeast  Level Estimated
Wed 12:36:00 AM 12.3706 -78.7106 139° Southeast  Level Estimated
Wed 12:37:00 AM 12.2725 -78.6220 139° Southeast  Level Estimated
Wed 12:38:00 AM 12.1743 -78.5334 139° Southeast  Level Estimated
Wed 12:39:00 AM 12.0761 -78.4449 139° Southeast  Level Estimated
Wed 12:40:00 AM 11.9779 -78.3565 139° Southeast  Level Estimated
Wed 12:41:00 AM 11.8797 -78.2682 139° Southeast  Level Estimated
Wed 12:42:00 AM 11.7814 -78.1799 139° Southeast  Level Estimated
Wed 12:43:00 AM 11.6831 -78.0917 139° Southeast  Level Estimated
Wed 12:44:00 AM 11.5848 -78.0035 139° Southeast  Level Estimated
Wed 12:45:00 AM 11.4865 -77.9154 139° Southeast  Level Estimated
Wed 12:46:00 AM 11.3881 -77.8274 139° Southeast  Level Estimated
Wed 12:47:00 AM 11.2897 -77.7394 139° Southeast  Level Estimated
Wed 12:48:00 AM 11.1912 -77.6515 139° Southeast  Level Estimated
Wed 12:49:00 AM 11.0928 -77.5637 139° Southeast  Level Estimated
Wed 12:50:00 AM 10.9943 -77.4759 139° Southeast  Level Estimated
Wed 12:51:00 AM 10.8958 -77.3882 139° Southeast  Level Estimated
Wed 12:52:00 AM 10.7973 -77.3005 139° Southeast  Level Estimated
Wed 12:53:00 AM 10.6987 -77.2129 139° Southeast  Level Estimated
Wed 12:54:00 AM 10.6002 -77.1253 139° Southeast  Level Estimated
Wed 12:55:00 AM 10.5015 -77.0378 139° Southeast  Level Estimated
Wed 12:56:00 AM 10.4029 -76.9503 139° Southeast  Level Estimated
Wed 12:57:00 AM 10.3043 -76.8629 139° Southeast  Level Estimated
Wed 12:58:00 AM 10.2056 -76.7756 139° Southeast  Level Estimated
Wed 12:59:00 AM 10.1069 -76.6883 139° Southeast  Level Estimated
Wed 01:00:00 AM 10.0082 -76.6011 139° Southeast  Level Estimated
Wed 01:01:00 AM 9.9094 -76.5139 139° Southeast  Level Estimated
Wed 01:02:00 AM 9.8107 -76.4268 139° Southeast  Level Estimated
Wed 01:03:00 AM 9.7119 -76.3397 139° Southeast  Level Estimated
Wed 01:04:00 AM 9.6131 -76.2527 139° Southeast  Level Estimated
Wed 01:04:43 AM 9.3150 -75.9350 139° Southeast 457 526 37,000  Level FlightAware ADS-B
Wed 01:05:00 AM 9.5142 -76.1657 139° Southeast  Level Estimated
Wed 01:05:19 AM 9.2560 -75.8710 133° Southeast 458 527 37,000  Level FlightAware ADS-B
Wed 01:06:03 AM 9.1940 -75.7990 131° Southeast 458 527 37,000  Level FlightAware ADS-B
Wed 01:06:45 AM 9.1440 -75.7410 131° Southeast 457 526 37,000  Level FlightAware ADS-B
Wed 01:07:27 AM 9.0710 -75.6670 135° Southeast 459 528 37,000  Level FlightAware ADS-B
Wed 01:08:10 AM 9.0010 -75.6040 138° Southeast 459 528 37,000  Level FlightAware ADS-B
Wed 01:08:52 AM 8.9370 -75.5460 138° Southeast 457 526 37,000  Level FlightAware ADS-B
Wed 01:09:32 AM 8.8760 -75.4900 138° Southeast 457 526 37,000  Level FlightAware ADS-B
Wed 01:10:17 AM 8.8100 -75.4290 138° Southeast 456 525 37,000  Level FlightAware ADS-B
Wed 01:10:58 AM 8.7450 -75.3690 138° Southeast 457 526 37,000  Level FlightAware ADS-B
Wed 01:11:51 AM 8.6860 -75.3160 138° Southeast 457 526 37,000  Level FlightAware ADS-B
Wed 01:12:40 AM 8.6210 -75.2560 138° Southeast 457 526 37,000  Level FlightAware ADS-B
Wed 01:13:14 AM 8.5750 -75.2150 139° Southeast 457 526 37,000  Level FlightAware ADS-B
Wed 01:14:02 AM 8.5110 -75.1560 138° Southeast 457 526 37,000  Level FlightAware ADS-B
Wed 01:14:37 AM 8.4650 -75.1140 138° Southeast 457 526 37,000  Level FlightAware ADS-B
Wed 01:15:25 AM 8.4010 -75.0550 138° Southeast 457 526 37,000  Level FlightAware ADS-B
Wed 01:16:01 AM 8.3520 -75.0120 139° Southeast 457 526 37,000  Level FlightAware ADS-B
Wed 01:16:49 AM 8.2880 -74.9530 138° Southeast 457 526 37,000  Level FlightAware ADS-B
Wed 01:17:26 AM 8.2390 -74.9080 138° Southeast 457 526 37,000  Level FlightAware ADS-B
Wed 01:18:14 AM 8.1750 -74.8500 138° Southeast 457 526 37,000  Level FlightAware ADS-B
Wed 01:18:50 AM 8.1270 -74.8060 138° Southeast 457 526 37,000  Level FlightAware ADS-B
Wed 01:19:39 AM 8.0610 -74.7470 138° Southeast 457 526 37,000  Level FlightAware ADS-B
Wed 01:20:14 AM 8.0150 -74.7040 137° Southeast 457 526 37,000  Level FlightAware ADS-B
Wed 01:21:03 AM 7.9490 -74.6450 138° Southeast 457 526 37,000  Level FlightAware ADS-B
Wed 01:23:00 AM 7.7567 -74.4756 138° Southeast  Level FlightAware Approximate
Wed 01:24:00 AM 7.6598 -74.3869 138° Southeast  Level FlightAware Approximate
Wed 01:25:00 AM 7.5628 -74.2983 138° Southeast  Level FlightAware Approximate
Wed 01:26:00 AM 7.4658 -74.2097 138° Southeast  Level FlightAware Approximate
Wed 01:27:00 AM 7.3688 -74.1211 138° Southeast  Level FlightAware Approximate
Wed 01:28:00 AM 7.2718 -74.0326 138° Southeast  Level FlightAware Approximate
Wed 01:29:00 AM 7.1748 -73.9441 138° Southeast  Level FlightAware Approximate
Wed 01:30:00 AM 7.0777 -73.8556 138° Southeast  Level FlightAware Approximate
Wed 01:30:08 AM 6.8710 -73.7200 138° Southeast 477 549 37,000  Level FlightAware ADS-B
Wed 01:30:49 AM 6.7910 -73.6770 152° Southeast 477 549 37,400 1,271 Climbing FlightAware ADS-B
Wed 01:31:33 AM 6.7050 -73.6310 152° Southeast 460 529 38,800 1,143 Climbing FlightAware ADS-B
Wed 01:32:13 AM 6.6300 -73.5900 151° Southeast 455 524 39,000 143 Climbing FlightAware ADS-B
Wed 01:32:57 AM 6.5490 -73.5460 152° Southeast 455 524 39,000  Level FlightAware ADS-B
Wed 01:33:37 AM 6.4750 -73.5060 152° Southeast 455 524 39,000  Level FlightAware ADS-B
Wed 01:34:22 AM 6.3910 -73.4610 152° Southeast 456 525 39,000  Level FlightAware ADS-B
Wed 01:35:01 AM 6.3180 -73.4210 151° Southeast 456 525 39,000  Level FlightAware ADS-B
Wed 01:35:41 AM 6.2440 -73.3810 152° Southeast 457 526 39,000  Level FlightAware ADS-B
Wed 01:36:25 AM 6.1610 -73.3370 152° Southeast 458 527 39,000  Level FlightAware ADS-B
Wed 01:37:09 AM 6.0810 -73.2930 151° Southeast 458 527 39,000  Level FlightAware ADS-B
Wed 01:37:49 AM 6.0050 -73.2520 152° Southeast 457 526 39,000  Level FlightAware ADS-B
Wed 01:38:33 AM 5.9230 -73.2080 152° Southeast 456 525 39,000  Level FlightAware ADS-B
Wed 01:39:30 AM 5.8300 -73.1570 151° Southeast 456 525 39,000  Level FlightAware ADS-B
Wed 01:40:19 AM 5.7310 -73.1040 152° Southeast 457 526 39,000  Level FlightAware ADS-B
Wed 01:41:05 AM 5.6390 -73.0550 152° Southeast 458 527 39,000  Level FlightAware ADS-B
Wed 01:41:47 AM 5.5640 -73.0150 152° Southeast 459 528 39,000  Level FlightAware ADS-B
Wed 01:42:28 AM 5.4840 -72.9720 152° Southeast 459 528 39,000  Level FlightAware ADS-B
Wed 01:43:11 AM 5.4020 -72.9270 151° Southeast 457 526 39,000  Level FlightAware ADS-B
Wed 01:43:55 AM 5.3200 -72.8830 152° Southeast 456 525 39,000  Level FlightAware ADS-B
Wed 01:44:35 AM 5.2460 -72.8430 152° Southeast 456 525 39,000  Level FlightAware ADS-B
Wed 01:45:15 AM 5.1700 -72.8030 152° Southeast 456 525 39,000  Level FlightAware ADS-B
Wed 01:45:59 AM 5.0870 -72.7580 152° Southeast 455 524 39,000  Level FlightAware ADS-B
Wed 01:46:45 AM 5.0130 -72.7180 152° Southeast 455 524 39,000  Level FlightAware ADS-B
Wed 01:47:21 AM 4.9560 -72.6860 151° Southeast 455 524 39,000  Level FlightAware ADS-B
Wed 01:48:09 AM 4.8810 -72.6440 151° Southeast 455 524 39,000  Level FlightAware ADS-B
Wed 01:48:45 AM 4.8250 -72.6130 151° Southeast 455 524 39,000  Level FlightAware ADS-B
Wed 01:49:22 AM 4.7670 -72.5810 151° Southeast 455 524 39,000  Level FlightAware ADS-B
Wed 01:50:11 AM 4.6900 -72.5380 151° Southeast 455 524 39,000  Level FlightAware ADS-B
Wed 01:50:49 AM 4.6310 -72.5050 151° Southeast 455 524 39,000  Level FlightAware ADS-B
Wed 01:51:37 AM 4.5560 -72.4630 151° Southeast 455 524 39,000  Level FlightAware ADS-B
Wed 01:52:13 AM 4.5000 -72.4320 151° Southeast 455 524 39,000  Level FlightAware ADS-B
Wed 01:53:03 AM 4.4210 -72.3880 151° Southeast 455 524 39,000  Level FlightAware ADS-B
Wed 01:53:37 AM 4.3680 -72.3590 151° Southeast 455 524 39,000  Level FlightAware ADS-B
Wed 01:54:25 AM 4.2930 -72.3170 151° Southeast 455 524 39,000  Level FlightAware ADS-B
Wed 01:55:02 AM 4.2350 -72.2850 151° Southeast 455 524 39,000  Level FlightAware ADS-B
Wed 01:55:48 AM 4.1630 -72.2450 151° Southeast 455 524 39,000 Level FlightAware ADS-B
Wed 01:58:00 AM 3.9073 -72.1150 145° Southeast  Level FlightAware Approximate
Wed 01:59:00 AM 3.8007 -72.0397 145° Southeast  Level FlightAware Approximate
Wed 02:00:00 AM 3.6940 -71.9645 145° Southeast  Level FlightAware Approximate
Wed 02:01:00 AM 3.5874 -71.8893 145° Southeast  Level FlightAware Approximate
Wed 02:02:00 AM 3.4808 -71.8141 145° Southeast  Level FlightAware Approximate
Wed 02:03:00 AM 3.3741 -71.7389 145° Southeast  Level FlightAware Approximate
Wed 02:04:00 AM 3.2675 -71.6637 145° Southeast  Level FlightAware Approximate
Wed 02:05:00 AM 3.1608 -71.5886 145° Southeast  Level FlightAware Approximate
Wed 02:06:00 AM 3.0542 -71.5135 145° Southeast  Level FlightAware Approximate
Wed 02:07:00 AM 2.9475 -71.4384 145° Southeast  Level FlightAware Approximate
Wed 02:08:00 AM 2.8408 -71.3633 145° Southeast  Level FlightAware Approximate
Wed 02:09:00 AM 2.7342 -71.2882 145° Southeast  Level FlightAware Approximate
Wed 02:10:00 AM 2.6275 -71.2131 145° Southeast  Level FlightAware Approximate
Wed 02:11:00 AM 2.5208 -71.1381 145° Southeast  Level FlightAware Approximate
Wed 02:12:00 AM 2.4141 -71.0630 145° Southeast  Level FlightAware Approximate
Wed 02:13:00 AM 2.3074 -70.9880 145° Southeast  Level FlightAware Approximate
Wed 02:14:00 AM 2.2007 -70.9130 145° Southeast  Level FlightAware Approximate
Wed 02:15:00 AM 2.0940 -70.8380 145° Southeast  Level FlightAware Approximate
Wed 02:16:00 AM 1.9873 -70.7630 145° Southeast  Level FlightAware Approximate
Wed 02:17:00 AM 1.8806 -70.6880 145° Southeast  Level FlightAware Approximate
Wed 02:18:00 AM 1.7739 -70.6130 145° Southeast  Level FlightAware Approximate
Wed 02:19:00 AM 1.6672 -70.5380 145° Southeast  Level FlightAware Approximate
Wed 02:20:00 AM 1.5605 -70.4631 145° Southeast  Level FlightAware Approximate
Wed 02:21:00 AM 1.4538 -70.3881 145° Southeast  Level FlightAware Approximate
Wed 02:22:00 AM 1.3470 -70.3132 145° Southeast  Level FlightAware Approximate
Wed 02:23:00 AM 1.2403 -70.2382 145° Southeast  Level FlightAware Approximate
Wed 02:24:00 AM 1.1425 -70.1524 138° Southeast  Level FlightAware Approximate
Wed 02:25:00 AM 1.0452 -70.0659 138° Southeast  Level FlightAware Approximate
Wed 02:26:00 AM 0.9480 -69.9793 138° Southeast  Level FlightAware Approximate
Wed 02:27:00 AM 0.8507 -69.8928 138° Southeast  Level FlightAware Approximate
Wed 02:28:00 AM 0.7535 -69.8063 138° Southeast  Level FlightAware Approximate
Wed 02:29:00 AM 0.6562 -69.7197 138° Southeast  Level FlightAware Approximate
Wed 02:30:00 AM 0.5590 -69.6332 138° Southeast  Level FlightAware Approximate
Wed 02:31:00 AM 0.4618 -69.5467 138° Southeast  Level FlightAware Approximate
Wed 02:32:00 AM 0.3645 -69.4601 138° Southeast  Level FlightAware Approximate
Wed 02:33:00 AM 0.2673 -69.3736 138° Southeast  Level FlightAware Approximate
Wed 02:34:00 AM 0.1700 -69.2871 138° Southeast  Level FlightAware Approximate
Wed 02:35:00 AM 0.0728 -69.2005 138° Southeast  Level FlightAware Approximate
Wed 02:36:00 AM -0.0245 -69.1140 138° Southeast  Level FlightAware Approximate
Wed 02:37:00 AM -0.1217 -69.0275 138° Southeast  Level FlightAware Approximate
Wed 02:38:00 AM -0.2190 -68.9410 138° Southeast  Level FlightAware Approximate
Wed 02:39:00 AM -0.3162 -68.8545 138° Southeast  Level FlightAware Approximate
Wed 02:40:00 AM -0.4135 -68.7679 138° Southeast  Level FlightAware Approximate
Wed 02:41:00 AM -0.5107 -68.6814 138° Southeast  Level FlightAware Approximate
Wed 02:42:00 AM -0.6080 -68.5949 138° Southeast  Level FlightAware Approximate
Wed 02:43:00 AM -0.7053 -68.5083 138° Southeast  Level FlightAware Approximate
Wed 02:44:00 AM -0.8025 -68.4218 138° Southeast  Level FlightAware Approximate
Wed 02:45:00 AM -0.8997 -68.3353 138° Southeast  Level FlightAware Approximate
Wed 02:46:00 AM -0.9970 -68.2487 138° Southeast  Level FlightAware Approximate
Wed 02:47:00 AM -1.0942 -68.1622 138° Southeast  Level FlightAware Approximate
Wed 02:48:00 AM -1.1914 -68.0756 138° Southeast  Level FlightAware Approximate
Wed 02:49:00 AM -1.2887 -67.9890 138° Southeast  Level FlightAware Approximate
Wed 02:50:00 AM -1.3859 -67.9025 138° Southeast  Level FlightAware Approximate
Wed 02:51:00 AM -1.4831 -67.8159 138° Southeast  Level FlightAware Approximate
Wed 02:52:00 AM -1.5804 -67.7293 138° Southeast  Level FlightAware Approximate
Wed 02:53:00 AM -1.6776 -67.6427 138° Southeast  Level FlightAware Approximate
Wed 02:54:00 AM -1.7748 -67.5561 138° Southeast  Level FlightAware Approximate
Wed 02:55:00 AM -1.8720 -67.4695 138° Southeast  Level FlightAware Approximate
Wed 02:56:00 AM -1.9692 -67.3829 138° Southeast  Level FlightAware Approximate
Wed 02:57:00 AM -2.0664 -67.2962 138° Southeast  Level FlightAware Approximate
Wed 02:58:00 AM -2.1636 -67.2096 138° Southeast  Level FlightAware Approximate
Wed 02:59:00 AM -2.2608 -67.1230 138° Southeast  Level FlightAware Approximate
Wed 03:00:00 AM -2.3580 -67.0363 138° Southeast  Level FlightAware Approximate
Wed 03:01:00 AM -2.4552 -66.9496 138° Southeast  Level FlightAware Approximate
Wed 03:02:00 AM -2.5524 -66.8629 138° Southeast  Level FlightAware Approximate
Wed 03:03:00 AM -2.6495 -66.7762 138° Southeast  Level FlightAware Approximate
Wed 03:04:00 AM -2.7467 -66.6895 138° Southeast  Level FlightAware Approximate
Wed 03:05:00 AM -2.8439 -66.6028 138° Southeast  Level FlightAware Approximate
Wed 03:06:00 AM -2.9410 -66.5160 138° Southeast  Level FlightAware Approximate
Wed 03:07:00 AM -3.0382 -66.4293 138° Southeast  Level FlightAware Approximate
Wed 03:08:00 AM -3.1353 -66.3425 138° Southeast  Level FlightAware Approximate
Wed 03:09:00 AM -3.2324 -66.2557 138° Southeast  Level FlightAware Approximate
Wed 03:10:00 AM -3.3296 -66.1689 138° Southeast  Level FlightAware Approximate
Wed 03:11:00 AM -3.4267 -66.0821 138° Southeast  Level FlightAware Approximate
Wed 03:12:00 AM -3.5238 -65.9952 138° Southeast  Level FlightAware Approximate
Wed 03:13:00 AM -3.6209 -65.9084 138° Southeast  Level FlightAware Approximate
Wed 03:14:00 AM -3.7180 -65.8215 138° Southeast  Level FlightAware Approximate
Wed 03:15:00 AM -3.8150 -65.7346 138° Southeast  Level FlightAware Approximate
Wed 03:16:00 AM -3.9121 -65.6477 138° Southeast  Level FlightAware Approximate
Wed 03:17:00 AM -4.0092 -65.5608 138° Southeast  Level FlightAware Approximate
Wed 03:18:00 AM -4.1063 -65.4738 138° Southeast  Level FlightAware Approximate
Wed 03:19:00 AM -4.2033 -65.3868 138° Southeast  Level FlightAware Approximate
Wed 03:20:00 AM -4.3004 -65.2998 138° Southeast  Level FlightAware Approximate
Wed 03:21:00 AM -4.3974 -65.2128 138° Southeast  Level FlightAware Approximate
Wed 03:22:00 AM -4.4944 -65.1257 138° Southeast  Level FlightAware Approximate
Wed 03:23:00 AM -4.5914 -65.0387 138° Southeast  Level FlightAware Approximate
Wed 03:24:00 AM -4.6884 -64.9516 138° Southeast  Level FlightAware Approximate
Wed 03:25:00 AM -4.7854 -64.8645 138° Southeast  Level FlightAware Approximate
Wed 03:26:00 AM -4.8824 -64.7773 138° Southeast  Level FlightAware Approximate
Wed 03:27:00 AM -4.9793 -64.6901 138° Southeast  Level FlightAware Approximate
Wed 03:28:00 AM -5.0763 -64.6030 138° Southeast  Level FlightAware Approximate
Wed 03:29:00 AM -5.1732 -64.5157 138° Southeast  Level FlightAware Approximate
Wed 03:30:00 AM -5.2702 -64.4285 138° Southeast  Level FlightAware Approximate
Wed 03:31:00 AM -5.3671 -64.3412 138° Southeast  Level FlightAware Approximate
Wed 03:32:00 AM -5.4640 -64.2539 138° Southeast  Level FlightAware Approximate
Wed 03:33:00 AM -5.5609 -64.1666 138° Southeast  Level FlightAware Approximate
Wed 03:34:00 AM -5.6578 -64.0792 138° Southeast  Level FlightAware Approximate
Wed 03:35:00 AM -5.7546 -63.9918 138° Southeast  Level FlightAware Approximate
Wed 03:36:00 AM -5.8515 -63.9044 138° Southeast  Level FlightAware Approximate
Wed 03:37:00 AM -5.9483 -63.8170 138° Southeast  Level FlightAware Approximate
Wed 03:38:00 AM -6.0451 -63.7295 138° Southeast  Level FlightAware Approximate
Wed 03:39:00 AM -6.1420 -63.6420 138° Southeast  Level FlightAware Approximate
Wed 03:40:00 AM -6.2387 -63.5544 138° Southeast  Level FlightAware Approximate
Wed 03:41:00 AM -6.3355 -63.4669 138° Southeast  Level FlightAware Approximate
Wed 03:42:00 AM -6.4323 -63.3793 138° Southeast  Level FlightAware Approximate
Wed 03:43:00 AM -6.5290 -63.2916 138° Southeast  Level FlightAware Approximate
Wed 03:44:00 AM -6.6258 -63.2039 138° Southeast  Level FlightAware Approximate
Wed 03:45:00 AM -6.7225 -63.1162 138° Southeast  Level FlightAware Approximate
Wed 03:46:00 AM -6.8192 -63.0285 138° Southeast  Level FlightAware Approximate
Wed 03:47:00 AM -6.9159 -62.9407 138° Southeast  Level FlightAware Approximate
Wed 03:48:00 AM -7.0126 -62.8529 138° Southeast  Level FlightAware Approximate
Wed 03:49:00 AM -7.1093 -62.7651 138° Southeast  Level FlightAware Approximate
Wed 03:50:00 AM -7.2059 -62.6772 138° Southeast  Level FlightAware Approximate
Wed 03:51:00 AM -7.3025 -62.5892 138° Southeast  Level FlightAware Approximate
Wed 03:52:00 AM -7.3991 -62.5013 138° Southeast  Level FlightAware Approximate
Wed 03:53:00 AM -7.4957 -62.4133 138° Southeast  Level FlightAware Approximate
Wed 03:54:00 AM -7.5923 -62.3252 138° Southeast  Level FlightAware Approximate
Wed 03:55:00 AM -7.6888 -62.2372 138° Southeast  Level FlightAware Approximate
Wed 03:56:00 AM -7.7854 -62.1490 138° Southeast  Level FlightAware Approximate
Wed 03:57:00 AM -7.8819 -62.0609 138° Southeast  Level FlightAware Approximate
Wed 03:58:00 AM -7.9784 -61.9727 138° Southeast  Level FlightAware Approximate
Wed 03:59:00 AM -8.0749 -61.8844 138° Southeast  Level FlightAware Approximate
Wed 04:00:00 AM -8.1713 -61.7962 138° Southeast  Level FlightAware Approximate
Wed 04:01:00 AM -8.2678 -61.7078 138° Southeast  Level FlightAware Approximate
Wed 04:02:00 AM -8.3642 -61.6194 138° Southeast  Level FlightAware Approximate
Wed 04:03:00 AM -8.4608 -61.5309 138° Southeast  Level FlightAware Approximate
Wed 04:04:00 AM -8.5573 -61.4423 138° Southeast  Level FlightAware Approximate
Wed 04:05:00 AM -8.6539 -61.3536 138° Southeast  Level FlightAware Approximate
Wed 04:06:00 AM -8.7504 -61.2649 138° Southeast  Level FlightAware Approximate
Wed 04:07:00 AM -8.8469 -61.1762 138° Southeast  Level FlightAware Approximate
Wed 04:08:00 AM -8.9433 -61.0873 138° Southeast  Level FlightAware Approximate
Wed 04:09:00 AM -9.0398 -60.9985 138° Southeast  Level FlightAware Approximate
Wed 04:10:00 AM -9.1362 -60.9096 138° Southeast  Level FlightAware Approximate
Wed 04:11:00 AM -9.2326 -60.8207 138° Southeast  Level FlightAware Approximate
Wed 04:12:00 AM -9.3290 -60.7317 138° Southeast  Level FlightAware Approximate
Wed 04:13:00 AM -9.4254 -60.6427 138° Southeast  Level FlightAware Approximate
Wed 04:14:00 AM -9.5217 -60.5536 138° Southeast  Level FlightAware Approximate
Wed 04:15:00 AM -9.6180 -60.4644 138° Southeast  Level FlightAware Approximate
Wed 04:16:00 AM -9.7143 -60.3752 138° Southeast  Level FlightAware Approximate
Wed 04:17:00 AM -9.8106 -60.2860 138° Southeast  Level FlightAware Approximate
Wed 04:18:00 AM -9.9069 -60.1967 138° Southeast  Level FlightAware Approximate
Wed 04:19:00 AM -10.0031 -60.1074 138° Southeast  Level FlightAware Approximate
Wed 04:20:00 AM -10.0993 -60.0180 138° Southeast  Level FlightAware Approximate
Wed 04:21:00 AM -10.1955 -59.9285 138° Southeast  Level FlightAware Approximate
Wed 04:22:00 AM -10.2916 -59.8390 138° Southeast  Level FlightAware Approximate
Wed 04:23:00 AM -10.3877 -59.7494 138° Southeast  Level FlightAware Approximate
Wed 04:24:00 AM -10.4840 -59.6597 137° Southeast  Level FlightAware Approximate
Wed 04:25:00 AM -10.5803 -59.5698 137° Southeast  Level FlightAware Approximate
Wed 04:26:00 AM -10.6765 -59.4800 137° Southeast  Level FlightAware Approximate
Wed 04:27:00 AM -10.7727 -59.3900 137° Southeast  Level FlightAware Approximate
Wed 04:28:00 AM -10.8689 -59.3000 137° Southeast  Level FlightAware Approximate
Wed 04:29:00 AM -10.9650 -59.2100 137° Southeast  Level FlightAware Approximate
Wed 04:30:00 AM -11.0611 -59.1199 137° Southeast  Level FlightAware Approximate
Wed 04:31:00 AM -11.1572 -59.0297 137° Southeast  Level FlightAware Approximate
Wed 04:32:00 AM -11.2533 -58.9394 137° Southeast  Level FlightAware Approximate
Wed 04:33:00 AM -11.3493 -58.8492 137° Southeast  Level FlightAware Approximate
Wed 04:34:00 AM -11.4453 -58.7588 137° Southeast  Level FlightAware Approximate
Wed 04:35:00 AM -11.5413 -58.6684 137° Southeast  Level FlightAware Approximate
Wed 04:36:00 AM -11.6372 -58.5779 137° Southeast  Level FlightAware Approximate
Wed 04:37:00 AM -11.7332 -58.4874 137° Southeast  Level FlightAware Approximate
Wed 04:38:00 AM -11.8291 -58.3968 137° Southeast  Level FlightAware Approximate
Wed 04:39:00 AM -11.9249 -58.3061 137° Southeast  Level FlightAware Approximate
Wed 04:40:00 AM -12.0208 -58.2154 137° Southeast  Level FlightAware Approximate
Wed 04:41:00 AM -12.1166 -58.1246 137° Southeast  Level FlightAware Approximate
Wed 04:42:00 AM -12.2124 -58.0337 137° Southeast  Level FlightAware Approximate
Wed 04:43:00 AM -12.3081 -57.9428 137° Southeast  Level FlightAware Approximate
Wed 04:44:00 AM -12.4038 -57.8518 137° Southeast  Level FlightAware Approximate
Wed 04:45:00 AM -12.4995 -57.7607 137° Southeast  Level FlightAware Approximate
Wed 04:46:00 AM -12.5952 -57.6696 137° Southeast  Level FlightAware Approximate
Wed 04:47:00 AM -12.6908 -57.5784 137° Southeast  Level FlightAware Approximate
Wed 04:48:00 AM -12.7864 -57.4871 137° Southeast  Level FlightAware Approximate
Wed 04:49:00 AM -12.8820 -57.3958 137° Southeast  Level FlightAware Approximate
Wed 04:50:00 AM -12.9775 -57.3044 137° Southeast  Level FlightAware Approximate
Wed 04:51:00 AM -13.0730 -57.2129 137° Southeast  Level FlightAware Approximate
Wed 04:52:00 AM -13.1685 -57.1214 137° Southeast  Level FlightAware Approximate
Wed 04:53:00 AM -13.2639 -57.0298 137° Southeast  Level FlightAware Approximate
Wed 04:54:00 AM -13.3594 -56.9381 137° Southeast  Level FlightAware Approximate
Wed 04:55:00 AM -13.4547 -56.8463 137° Southeast  Level FlightAware Approximate
Wed 04:56:00 AM -13.5501 -56.7545 137° Southeast  Level FlightAware Approximate
Wed 04:57:00 AM -13.6454 -56.6626 137° Southeast  Level FlightAware Approximate
Wed 04:58:00 AM -13.7406 -56.5706 137° Southeast  Level FlightAware Approximate
Wed 04:59:00 AM -13.8359 -56.4785 137° Southeast  Level FlightAware Approximate
Wed 05:00:00 AM -13.9311 -56.3864 137° Southeast  Level FlightAware Approximate
Wed 05:01:00 AM -14.0262 -56.2942 137° Southeast  Level FlightAware Approximate
Wed 05:02:00 AM -14.1214 -56.2019 137° Southeast  Level FlightAware Approximate
Wed 05:03:00 AM -14.2165 -56.1096 137° Southeast  Level FlightAware Approximate
Wed 05:04:00 AM -14.3115 -56.0171 137° Southeast  Level FlightAware Approximate
Wed 05:05:00 AM -14.4066 -55.9246 137° Southeast  Level FlightAware Approximate
Wed 05:06:00 AM -14.5016 -55.8320 137° Southeast  Level FlightAware Approximate
Wed 05:07:00 AM -14.5965 -55.7393 137° Southeast  Level FlightAware Approximate
Wed 05:08:00 AM -14.6914 -55.6466 137° Southeast  Level FlightAware Approximate
Wed 05:09:00 AM -14.7863 -55.5537 137° Southeast  Level FlightAware Approximate
Wed 05:10:00 AM -14.8812 -55.4608 137° Southeast  Level FlightAware Approximate
Wed 05:11:00 AM -14.9760 -55.3678 137° Southeast  Level FlightAware Approximate
Wed 05:12:00 AM -15.0707 -55.2747 137° Southeast  Level FlightAware Approximate
Wed 05:13:00 AM -15.1655 -55.1816 136° Southeast  Level FlightAware Approximate
Wed 05:14:00 AM -15.2601 -55.0883 136° Southeast  Level FlightAware Approximate
Wed 05:15:00 AM -15.3548 -54.9950 136° Southeast  Level FlightAware Approximate
Wed 05:16:00 AM -15.4494 -54.9016 136° Southeast  Level FlightAware Approximate
Wed 05:17:00 AM -15.5440 -54.8081 136° Southeast  Level FlightAware Approximate
Wed 05:18:00 AM -15.6385 -54.7145 136° Southeast  Level FlightAware Approximate
Wed 05:19:00 AM -15.7330 -54.6208 136° Southeast  Level FlightAware Approximate
Wed 05:20:00 AM -15.8275 -54.5271 136° Southeast  Level FlightAware Approximate
Wed 05:21:00 AM -15.9219 -54.4332 136° Southeast  Level FlightAware Approximate
Wed 05:22:00 AM -16.0163 -54.3393 136° Southeast  Level FlightAware Approximate
Wed 05:23:00 AM -16.1106 -54.2453 136° Southeast  Level FlightAware Approximate
Wed 05:24:00 AM -16.2049 -54.1511 136° Southeast  Level FlightAware Approximate
Wed 05:25:00 AM -16.2992 -54.0569 136° Southeast  Level FlightAware Approximate
Wed 05:26:00 AM -16.3934 -53.9626 136° Southeast  Level FlightAware Approximate
Wed 05:27:00 AM -16.4876 -53.8683 136° Southeast  Level FlightAware Approximate
Wed 05:28:00 AM -16.5817 -53.7738 136° Southeast  Level FlightAware Approximate
Wed 05:29:00 AM -16.6758 -53.6792 136° Southeast  Level FlightAware Approximate
Wed 05:30:00 AM -16.7698 -53.5845 136° Southeast  Level FlightAware Approximate
Wed 05:31:00 AM -16.8638 -53.4898 136° Southeast  Level FlightAware Approximate
Wed 05:32:00 AM -16.9578 -53.3949 136° Southeast  Level FlightAware Approximate
Wed 05:33:00 AM -17.0517 -53.3000 136° Southeast  Level FlightAware Approximate
Wed 05:34:00 AM -17.1455 -53.2049 136° Southeast  Level FlightAware Approximate
Wed 05:35:00 AM -17.2394 -53.1098 136° Southeast  Level FlightAware Approximate
Wed 05:36:00 AM -17.3331 -53.0146 136° Southeast  Level FlightAware Approximate
Wed 05:37:00 AM -17.4269 -52.9192 136° Southeast  Level FlightAware Approximate
Wed 05:38:00 AM -17.5206 -52.8238 136° Southeast  Level FlightAware Approximate
Wed 05:39:00 AM -17.6142 -52.7283 136° Southeast  Level FlightAware Approximate
Wed 05:40:00 AM -17.7078 -52.6326 136° Southeast  Level FlightAware Approximate
Wed 05:41:00 AM -17.8013 -52.5369 136° Southeast  Level FlightAware Approximate
Wed 05:42:00 AM -17.8948 -52.4411 136° Southeast  Level FlightAware Approximate
Wed 05:43:00 AM -17.9883 -52.3451 136° Southeast  Level FlightAware Approximate
Wed 05:44:00 AM -18.0817 -52.2491 136° Southeast  Level FlightAware Approximate
Wed 05:45:00 AM -18.1751 -52.1530 136° Southeast  Level FlightAware Approximate
Wed 05:46:00 AM -18.2684 -52.0568 136° Southeast  Level FlightAware Approximate
Wed 05:46:29 AM -18.8430 -50.8670 136° Southeast 509 586 41,000  Level FlightAware ADS-B
Wed 05:47:00 AM -18.3616 -51.9604 136° Southeast  Level FlightAware Approximate
Wed 05:47:11 AM -18.9010 -50.8040 134° Southeast 509 586 41,000  Level FlightAware ADS-B
Wed 05:47:48 AM -18.9520 -50.7480 134° Southeast 509 586 41,000  Level FlightAware ADS-B
Wed 05:48:43 AM -19.0620 -50.6280 134° Southeast 512 589 41,000  Level FlightAware ADS-B
Wed 05:49:29 AM -19.1380 -50.5450 134° Southeast 514 592 41,000  Level FlightAware ADS-B
Wed 05:50:07 AM -19.2020 -50.4750 134° Southeast 514 592 41,000  Level FlightAware ADS-B
Wed 05:50:49 AM -19.2710 -50.3990 134° Southeast 515 593 41,000  Level FlightAware ADS-B
Wed 05:51:34 AM -19.3340 -50.3160 129° Southeast 518 596 41,000  Level FlightAware ADS-B
Wed 05:52:14 AM -19.4010 -50.2340 131° Southeast 517 595 41,000  Level FlightAware ADS-B
Wed 05:53:01 AM -19.4790 -50.1460 133° Southeast 517 595 41,000  Level FlightAware ADS-B
Wed 05:53:41 AM -19.5430 -50.0750 134° Southeast 517 595 41,000  Level FlightAware ADS-B
Wed 05:54:23 AM -19.6140 -49.9970 134° Southeast 519 597 41,000  Level FlightAware ADS-B
Wed 05:55:03 AM -19.6810 -49.9230 134° Southeast 520 598 41,000  Level FlightAware ADS-B
Wed 05:55:45 AM -19.7520 -49.8460 134° Southeast 521 600 41,000  Level FlightAware ADS-B
Wed 05:56:31 AM -19.8290 -49.7620 134° Southeast 522 601 41,000  Level FlightAware ADS-B
Wed 05:57:11 AM -19.8980 -49.6870 134° Southeast 523 602 41,000  Level FlightAware ADS-B
Wed 05:57:54 AM -19.9690 -49.6090 134° Southeast 524 603 41,000  Level FlightAware ADS-B
Wed 05:58:35 AM -20.0380 -49.5330 134° Southeast 524 603 41,000  Level FlightAware ADS-B
Wed 05:59:16 AM -20.1060 -49.4580 134° Southeast 526 605 41,000  Level FlightAware ADS-B
Wed 05:59:55 AM -20.1740 -49.3840 134° Southeast 526 605 41,000  Level FlightAware ADS-B
Wed 06:02:00 AM -20.3849 -49.2006 141° Southeast  Level Estimated
Wed 06:02:09 AM -20.4000 -49.1340 141° Southeast 525 604 41,000  Level FlightAware ADS-B
Wed 06:02:47 AM -20.4640 -49.0630 134° Southeast 524 603 41,000  Level FlightAware ADS-B
Wed 06:03:31 AM -20.5380 -48.9810 134° Southeast 524 603 41,000  Level FlightAware ADS-B
Wed 06:04:13 AM -20.6090 -48.9030 134° Southeast 526 605 41,000  Level FlightAware ADS-B
Wed 06:04:55 AM -20.6790 -48.8240 133° Southeast 526 605 41,000  Level FlightAware ADS-B
Wed 06:05:35 AM -20.7470 -48.7490 134° Southeast 526 605 41,000  Level FlightAware ADS-B
Wed 06:06:17 AM -20.8170 -48.6700 133° Southeast 526 605 41,000  Level FlightAware ADS-B
Wed 06:07:01 AM -20.8920 -48.5850 133° Southeast 527 606 41,000  Level FlightAware ADS-B
Wed 06:07:46 AM -20.9660 -48.5020 134° Southeast 527 606 41,000  Level FlightAware ADS-B
Wed 06:08:27 AM -21.0360 -48.4240 134° Southeast 529 609 41,000  Level FlightAware ADS-B
Wed 06:09:07 AM -21.1040 -48.3470 133° Southeast 529 609 41,000  Level FlightAware ADS-B
Wed 06:09:47 AM -21.1710 -48.2710 133° Southeast 531 611 41,000 -357 Level FlightAware ADS-B
Wed 06:10:31 AM -21.2450 -48.1880 134° Southeast 528 608 40,500 -1,107 Descending FlightAware ADS-B
Wed 06:11:30 AM -21.3550 -48.0950 142° Southeast 525 604 39,100 -1,273 Descending FlightAware ADS-B
Wed 06:12:10 AM -21.4340 -48.0300 143° Southeast 523 602 38,400 -1,125 Descending FlightAware ADS-B
Wed 06:12:50 AM -21.5120 -47.9680 144° Southeast 524 603 37,600 -1,186 Descending FlightAware ADS-B
Wed 06:13:36 AM -21.6020 -47.8970 144° Southeast 527 606 36,700 -1,159 Descending FlightAware ADS-B
Wed 06:14:18 AM -21.6840 -47.8300 143° Southeast 530 610 35,900 -923 Descending FlightAware ADS-B
Wed 06:14:54 AM -21.7540 -47.7730 143° Southeast 526 605 35,500 -947 Descending FlightAware ADS-B
Wed 06:15:34 AM -21.8310 -47.7090 142° Southeast 525 604 34,700 -1,659 Descending FlightAware ADS-B
Wed 06:16:57 AM -21.9930 -47.5760 143° Southeast 515 593 32,100 -1,968 Descending FlightAware ADS-B
Wed 06:17:39 AM -22.0710 -47.5130 143° Southeast 506 582 30,600 -2,163 Descending FlightAware ADS-B
Wed 06:18:23 AM -22.1550 -47.4450 143° Southeast 498 573 29,000 -2,143 Descending FlightAware ADS-B
Wed 06:19:03 AM -22.2270 -47.3860 143° Southeast 491 565 27,600 -2,163 Descending FlightAware ADS-B
Wed 06:19:49 AM -22.3090 -47.3180 143° Southeast 483 556 25,900 -2,148 Descending FlightAware ADS-B
Wed 06:20:24 AM -22.3710 -47.2680 143° Southeast 478 550 24,700 -2,104 Descending FlightAware ADS-B
Wed 06:21:06 AM -22.4440 -47.2070 142° Southeast 469 540 23,200 -2,169 Descending FlightAware ADS-B
Wed 06:21:47 AM -22.5160 -47.1480 143° Southeast 463 533 21,700 -2,022 Descending FlightAware ADS-B
Wed 06:22:35 AM -22.5980 -47.0900 147° Southeast 443 510 20,200 -2,286 Descending FlightAware ADS-B
Wed 06:23:32 AM -22.7040 -47.0440 158° South 425 489 17,700 -2,351 Descending FlightAware ADS-B
Wed 06:24:12 AM -22.7780 -47.0130 159° South 415 478 16,400 -1,857 Descending FlightAware ADS-B
Wed 06:24:56 AM -22.8560 -46.9810 159° South 403 464 15,100 -1,714 Descending FlightAware ADS-B
Wed 06:25:36 AM -22.9250 -46.9520 159° South 386 444 14,000 -1,929 Descending FlightAware ADS-B
Wed 06:26:20 AM -22.9950 -46.9220 158° South 364 419 12,400 -2,071 Descending FlightAware ADS-B
Wed 06:27:00 AM -23.0570 -46.8960 159° South 337 388 11,100 -1,735 Descending FlightAware ADS-B
Wed 06:27:43 AM -23.1170 -46.8710 159° South 322 371 10,000 -1,500 Descending FlightAware ADS-B
Wed 06:28:08 AM -23.1520 -46.8560 158° South 322 371 9,400 -1,395 Descending FlightAware ADS-B
Wed 06:28:26 AM -23.1770 -46.8450 158° South 316 364 9,000 -1,304 Descending FlightAware ADS-B
Wed 06:28:54 AM -23.2150 -46.8290 159° South 309 356 8,400 -1,154 Descending FlightAware ADS-B
Wed 06:29:18 AM -23.2470 -46.8160 160° South 302 348 8,000 -429 Descending FlightAware ADS-B
Wed 06:29:50 AM -23.2870 -46.7990 159° South 300 345 8,000 -88 Level FlightAware ADS-B
Wed 06:30:26 AM -23.3350 -46.7790 159° South 290 334 7,900 -441 Descending FlightAware ADS-B
Wed 06:30:58 AM -23.3740 -46.7600 156° South 275 316 7,500 -774 Descending FlightAware ADS-B
Wed 06:31:28 AM -23.4020 -46.7360 142° Southeast 256 295 7,100 -964 Descending FlightAware ADS-B
Wed 06:31:54 AM -23.4250 -46.7140 139° Southeast 242 278 6,600 -1,222 Descending FlightAware ADS-B
Wed 06:32:22 AM -23.4470 -46.6910 136° Southeast 232 267 6,000 -1,179 Descending FlightAware ADS-B
Wed 06:32:50 AM -23.4600 -46.6630 117° Southeast 218 251 5,500 -1,071 Descending FlightAware ADS-B
Wed 06:33:18 AM -23.4710 -46.6370 115° Southeast 208 239 5,000 -1,200 Descending FlightAware ADS-B
Wed 06:33:30 AM -23.4740 -46.6230 103° East 199 229 4,700 -955 Descending FlightAware ADS-B
Wed 06:34:02 AM -23.4680 -46.5940 77° East 176 203 4,300 -900 Descending FlightAware ADS-B
Wed 06:34:30 AM -23.4620 -46.5720 73° East 153 176 3,800 -923 Descending FlightAware ADS-B
Wed 06:34:54 AM -23.4570 -46.5540 73° East 148 170 3,500 -750 Descending FlightAware ADS-B
Wed 06:35:26 AM -23.4510 -46.5310 74° East 150 173 3,100 -686 Descending FlightAware ADS-B
Wed 06:36:04 AM -23.4450 -46.5090 73° East 150 173 2,700 -581 Descending FlightAware ADS-B
Wed 06:36:28 AM -23.4410 -46.4940 74° East 150 173 2,500 -500 Descending FlightAware ADS-B
Wed 06:36:59 AM -23.4340 -46.4700 72° East 72 83 -4,839 Descending FlightAware ADS-B
Wed 06:37:31 AM -23.4320 -46.4620 75° East 66 76  Level FlightAware ADS-B

Login

Don't have an account? Register now (free) for customized features, flight alerts, and more!